createdAt,value
2018-12-31T00:00:48.433Z,4.20
2018-12-31T00:05:44.151Z,4.10
2018-12-31T00:10:39.810Z,4.00
2018-12-31T00:15:35.577Z,4.00
2018-12-31T00:20:31.305Z,3.90
2018-12-31T00:25:28.949Z,3.70
2018-12-31T00:30:24.525Z,3.70
2018-12-31T00:35:20.217Z,3.70
2018-12-31T00:40:15.829Z,3.60
2018-12-31T00:45:11.553Z,3.50
2018-12-31T00:50:07.285Z,3.40
2018-12-31T00:55:02.963Z,3.30
2018-12-31T00:59:58.613Z,3.20
2018-12-31T01:04:54.309Z,3.20
2018-12-31T01:09:49.969Z,3.30
2018-12-31T01:14:45.537Z,3.30
2018-12-31T01:19:41.170Z,3.20
2018-12-31T01:24:36.726Z,3.10
2018-12-31T01:29:32.324Z,3.00
2018-12-31T01:34:27.953Z,3.10
2018-12-31T01:39:23.701Z,3.00
2018-12-31T01:44:19.250Z,3.00
2018-12-31T01:49:14.971Z,2.90
2018-12-31T01:54:10.603Z,3.00
2018-12-31T01:59:06.250Z,2.90
2018-12-31T02:04:02.171Z,3.00
2018-12-31T02:08:58.301Z,3.00
2018-12-31T02:13:55.161Z,3.00
2018-12-31T02:18:51.318Z,3.00
2018-12-31T02:23:47.275Z,2.90
2018-12-31T02:28:42.824Z,2.80
2018-12-31T02:33:38.496Z,2.80
2018-12-31T02:38:34.175Z,2.70
2018-12-31T02:43:29.785Z,2.70
2018-12-31T02:48:25.354Z,2.80
2018-12-31T02:53:21.017Z,2.80
2018-12-31T02:58:16.582Z,2.80
2018-12-31T03:03:12.181Z,2.90
2018-12-31T03:08:07.741Z,2.90
2018-12-31T03:13:03.741Z,2.80
2018-12-31T03:17:59.398Z,2.80
2018-12-31T03:22:55.043Z,2.80
2018-12-31T03:27:50.621Z,2.80
2018-12-31T03:32:46.248Z,2.80
2018-12-31T03:37:41.824Z,2.80
2018-12-31T03:42:37.480Z,2.70
2018-12-31T03:47:33.269Z,2.70
2018-12-31T03:52:28.933Z,2.60
2018-12-31T03:57:24.564Z,2.60
2018-12-31T04:02:20.123Z,2.50
2018-12-31T04:07:15.755Z,2.60
2018-12-31T04:12:11.381Z,2.60
2018-12-31T04:17:07.021Z,2.50
2018-12-31T04:22:03.094Z,2.50
2018-12-31T04:26:58.670Z,2.40
2018-12-31T04:31:54.229Z,2.40
2018-12-31T04:36:49.837Z,2.30
2018-12-31T04:41:45.469Z,2.30
2018-12-31T05:00:10.418Z,2.10
2018-12-31T09:40:57.657Z,4.10
2018-12-31T09:45:53.236Z,4.40
2018-12-31T09:50:48.934Z,4.60
2018-12-31T09:55:44.534Z,4.80
2018-12-31T10:00:40.137Z,5.00
2018-12-31T10:05:35.730Z,5.10
2018-12-31T10:10:31.365Z,5.20
2018-12-31T10:15:27.186Z,5.40
2018-12-31T10:20:22.932Z,5.50
2018-12-31T10:25:18.570Z,5.60
2018-12-31T10:30:16.680Z,5.70
2018-12-31T10:35:13.396Z,5.70
2018-12-31T10:40:09.994Z,5.70
2018-12-31T10:45:05.909Z,5.70
2018-12-31T10:50:01.524Z,5.70
2018-12-31T10:54:57.196Z,5.70
2018-12-31T10:59:52.853Z,5.70
2018-12-31T11:04:48.611Z,5.80
2018-12-31T11:09:44.315Z,5.90
2018-12-31T11:14:40.264Z,6.00
2018-12-31T11:19:36.641Z,6.10
2018-12-31T11:24:33.170Z,6.30
2018-12-31T11:29:30.928Z,6.80
2018-12-31T11:34:35.184Z,7.40
2018-12-31T11:39:31.399Z,7.70
2018-12-31T11:44:28.877Z,8.60
2018-12-31T11:49:24.838Z,9.80
2018-12-31T11:54:20.485Z,10.60
2018-12-31T11:59:31.230Z,11.40
2018-12-31T12:04:49.210Z,12.20
2018-12-31T12:10:03.530Z,13.00
2018-12-31T12:15:00.753Z,13.60
2018-12-31T12:20:05.852Z,14.10
2018-12-31T12:24:56.776Z,14.20
2018-12-31T12:29:52.392Z,14.70
2018-12-31T12:34:47.951Z,14.60
2018-12-31T12:39:44.014Z,14.70
2018-12-31T12:44:41.884Z,13.90
2018-12-31T12:49:37.517Z,13.60
2018-12-31T12:54:33.165Z,12.80
2018-12-31T12:59:29.295Z,12.60
2018-12-31T13:04:26.638Z,12.10
2018-12-31T13:09:22.599Z,11.40
2018-12-31T13:14:18.224Z,11.00
2018-12-31T13:19:13.897Z,11.00
2018-12-31T13:24:09.495Z,10.60
2018-12-31T13:29:05.248Z,10.30
2018-12-31T13:34:01.000Z,10.40
2018-12-31T13:38:57.997Z,10.30
2018-12-31T13:43:54.072Z,10.10
2018-12-31T13:48:49.681Z,10.00
2018-12-31T13:53:45.376Z,9.70
2018-12-31T13:58:41.047Z,9.50
2018-12-31T14:03:36.717Z,9.30
2018-12-31T14:08:32.340Z,9.30
2018-12-31T14:13:28.107Z,9.30
2018-12-31T14:18:23.773Z,9.10
2018-12-31T14:23:19.385Z,9.00
2018-12-31T14:28:15.008Z,8.90
2018-12-31T14:33:10.690Z,8.80
2018-12-31T14:38:06.365Z,8.70
2018-12-31T14:43:04.301Z,8.60
2018-12-31T14:47:59.861Z,8.40
2018-12-31T14:52:55.432Z,8.20
2018-12-31T14:57:51.253Z,8.00
2018-12-31T15:02:46.941Z,8.00
2018-12-31T15:07:42.658Z,7.90
2018-12-31T15:12:38.270Z,7.80
2018-12-31T15:17:34.305Z,7.70
2018-12-31T15:22:29.922Z,7.70
2018-12-31T15:27:25.464Z,7.50
2018-12-31T15:32:21.093Z,7.40
2018-12-31T15:37:16.733Z,7.40
2018-12-31T15:42:12.464Z,7.20
2018-12-31T15:47:08.249Z,7.00
2018-12-31T15:52:04.059Z,6.80
2018-12-31T15:56:59.721Z,6.70
2018-12-31T16:01:55.367Z,6.60
2018-12-31T16:06:52.163Z,6.40
2018-12-31T16:12:07.345Z,6.30
2018-12-31T16:17:03.085Z,6.10
2018-12-31T16:21:59.019Z,6.00
2018-12-31T16:26:54.646Z,5.90
2018-12-31T16:31:50.250Z,5.80
2018-12-31T16:36:46.108Z,5.70
2018-12-31T16:41:42.354Z,5.70
2018-12-31T16:46:38.040Z,5.60
2018-12-31T16:51:33.661Z,5.50
2018-12-31T16:56:29.323Z,5.40
2018-12-31T17:01:24.925Z,5.30
2018-12-31T17:06:20.513Z,5.20
2018-12-31T17:11:16.302Z,5.10
2018-12-31T17:16:11.983Z,4.90
2018-12-31T17:21:07.607Z,4.80
2018-12-31T17:26:03.621Z,4.70
2018-12-31T17:30:59.649Z,4.60
2018-12-31T17:35:55.280Z,4.50
2018-12-31T17:40:50.898Z,4.50
2018-12-31T17:45:46.585Z,4.40
2018-12-31T17:50:42.205Z,4.40
2018-12-31T17:55:38.857Z,4.40
2018-12-31T18:00:34.525Z,4.40
2018-12-31T18:05:30.205Z,4.40
2018-12-31T18:10:27.428Z,4.40
2018-12-31T18:15:23.105Z,4.30
2018-12-31T18:20:18.697Z,4.30
2018-12-31T18:25:14.561Z,4.20
2018-12-31T18:30:11.093Z,4.20
2018-12-31T18:35:06.866Z,4.10
2018-12-31T18:40:02.569Z,4.00
2018-12-31T18:44:58.177Z,3.90
2018-12-31T18:49:53.873Z,3.90
2018-12-31T18:54:49.509Z,3.90
2018-12-31T18:59:45.162Z,3.90
2018-12-31T19:04:40.836Z,3.80
2018-12-31T19:09:36.474Z,3.70
2018-12-31T19:14:32.067Z,3.60
2018-12-31T19:19:28.105Z,3.50
2018-12-31T19:24:23.804Z,3.40
2018-12-31T19:29:19.400Z,3.40
2018-12-31T19:34:15.273Z,3.40
2018-12-31T19:39:10.933Z,3.40
2018-12-31T19:44:06.521Z,3.30
2018-12-31T19:49:02.161Z,3.20
2018-12-31T19:53:57.829Z,3.20
2018-12-31T19:58:53.468Z,3.20
2018-12-31T20:03:49.042Z,3.10
2018-12-31T20:08:44.756Z,3.10
2018-12-31T20:13:40.434Z,3.00
2018-12-31T20:18:36.053Z,2.90
2018-12-31T20:23:31.715Z,2.90
2018-12-31T20:28:27.401Z,2.80
2018-12-31T20:33:23.493Z,2.80
2018-12-31T20:38:19.137Z,2.80
2018-12-31T20:43:14.810Z,2.80
2018-12-31T20:48:10.384Z,2.70
2018-12-31T20:53:06.001Z,2.70
2018-12-31T20:58:01.540Z,2.50
2018-12-31T21:02:57.133Z,2.40
2018-12-31T21:07:52.745Z,2.30
2018-12-31T21:12:48.401Z,2.30
2018-12-31T21:17:44.081Z,2.40
2018-12-31T21:22:39.734Z,2.50
2018-12-31T21:27:35.453Z,2.50
2018-12-31T21:32:31.030Z,2.40
2018-12-31T21:37:26.805Z,2.50
2018-12-31T21:42:22.473Z,2.50
2018-12-31T21:47:18.294Z,2.50
2018-12-31T21:52:13.925Z,2.50
2018-12-31T21:57:09.703Z,2.50
2018-12-31T22:02:05.345Z,2.50
2018-12-31T22:07:01.013Z,2.50
2018-12-31T22:12:00.701Z,2.50
2018-12-31T22:16:56.399Z,2.50
2018-12-31T22:21:52.037Z,2.50
2018-12-31T22:26:47.673Z,2.50
2018-12-31T22:31:43.261Z,2.50
2018-12-31T22:36:38.882Z,2.60
2018-12-31T22:41:34.506Z,2.50
2018-12-31T22:46:30.129Z,2.60
2018-12-31T22:51:25.702Z,2.60
2018-12-31T22:56:22.445Z,2.60
2018-12-31T23:01:18.014Z,2.60
2018-12-31T23:06:13.964Z,2.50
2018-12-31T23:11:09.597Z,2.50
2018-12-31T23:16:05.342Z,2.50
2018-12-31T23:21:01.030Z,2.50
2018-12-31T23:25:58.069Z,2.40
2018-12-31T23:30:53.964Z,2.50
2018-12-31T23:35:52.384Z,2.50
2018-12-31T23:40:47.971Z,2.50
2018-12-31T23:45:43.680Z,2.50
2018-12-31T23:50:39.220Z,2.50
2018-12-31T23:55:37.706Z,2.60
